Time;durP1;ratioP1;P1;durP2;ratioP2;P2;SDS_P1;SDS_P2;PMS_P1;PMS_P2;Temp;Humidity;BMP_temperature;BMP_pressure;BME280_temperature;BME280_humidity;BME280_pressure;Samples;Min_cycle;Max_cycle;Signal;HPM_P1;HPM_P2
2022/02/20 00:01:07;;;;;;;;;2.00;1.33;;;;;-147.17;100.00;59696.56;4999067;28;51723;-72
2022/02/20 00:03:33;;;;;;;;;1.00;0.67;;;;;-147.17;100.00;59696.56;4999308;28;52073;-74
2022/02/20 00:05:58;;;;;;;;;1.00;1.00;;;;;-147.17;100.00;59696.56;4999681;28;51328;-71
2022/02/20 00:08:24;;;;;;;;;3.00;3.00;;;;;-147.17;100.00;59696.56;4996514;28;52012;-72
2022/02/20 00:10:49;;;;;;;;;3.00;3.00;;;;;-147.17;100.00;59696.56;5007058;28;50956;-73
2022/02/20 00:13:15;;;;;;;;;1.00;1.00;;;;;-147.17;100.00;59696.56;5012164;28;51091;-72
2022/02/20 00:15:41;;;;;;;;;2.00;1.67;;;;;-147.17;100.00;59696.56;5009892;28;50932;-72
2022/02/20 00:18:06;;;;;;;;;5.00;4.00;;;;;-147.17;100.00;59696.56;4999910;28;51160;-73
2022/02/20 00:20:32;;;;;;;;;2.00;2.00;;;;;-147.17;100.00;59696.56;4996317;28;51211;-74
2022/02/20 00:23:01;;;;;;;;;3.00;3.00;;;;;-147.17;100.00;59696.56;4990422;28;51157;-74
2022/02/20 00:25:31;;;;;;;;;2.00;2.00;;;;;-147.17;100.00;59696.56;5006203;28;51016;-75
2022/02/20 00:27:57;;;;;;;;;3.00;2.00;;;;;-147.17;100.00;59696.56;4998606;28;51112;-73
2022/02/20 00:30:23;;;;;;;;;2.00;2.00;;;;;-147.17;100.00;59696.56;4997740;28;51753;-72
2022/02/20 00:32:48;;;;;;;;;4.67;3.00;;;;;-147.17;100.00;59696.56;5001049;28;51150;-74
2022/02/20 00:35:14;;;;;;;;;2.00;2.00;;;;;-147.17;100.00;59696.56;5003933;28;51045;-73
2022/02/20 00:37:39;;;;;;;;;2.00;1.00;;;;;-147.17;100.00;59696.56;5008868;28;51014;-73
2022/02/20 00:40:05;;;;;;;;;2.33;2.33;;;;;-147.17;100.00;59696.56;5001384;28;51144;-73
2022/02/20 00:42:31;;;;;;;;;1.33;1.00;;;;;-147.17;100.00;59696.56;5001871;28;51171;-74
2022/02/20 00:44:56;;;;;;;;;3.00;2.00;;;;;-147.17;100.00;59696.56;5002155;28;51088;-74
2022/02/20 00:47:22;;;;;;;;;1.33;1.00;;;;;-147.17;100.00;59696.56;5012174;28;51550;-74
2022/02/20 00:49:47;;;;;;;;;1.00;1.00;;;;;-147.17;100.00;59696.56;5006520;28;51055;-73
2022/02/20 00:52:12;;;;;;;;;5.00;3.00;;;;;-147.17;100.00;59696.56;5001164;28;51287;-73
2022/02/20 00:54:38;;;;;;;;;2.00;1.00;;;;;-147.17;100.00;59696.56;4997818;28;52075;-72
2022/02/20 00:57:03;;;;;;;;;2.00;2.00;;;;;-147.17;100.00;59696.56;4993951;28;51684;-74
2022/02/20 00:59:28;;;;;;;;;3.67;3.67;;;;;-147.17;100.00;59696.56;4994859;28;51141;-74
2022/02/20 01:01:54;;;;;;;;;4.00;3.00;;;;;-147.17;100.00;59696.56;4987213;28;51079;-75
2022/02/20 01:04:19;;;;;;;;;2.67;2.00;;;;;-147.17;100.00;59696.56;4995775;28;51199;-75
2022/02/20 01:06:45;;;;;;;;;2.00;2.00;;;;;-147.17;100.00;59696.56;5006088;28;50928;-72
2022/02/20 01:09:10;;;;;;;;;3.67;2.67;;;;;-147.17;100.00;59696.56;5007152;28;50960;-73
2022/02/20 01:11:35;;;;;;;;;1.00;0.67;;;;;-147.17;100.00;59696.56;5004125;28;50948;-73
2022/02/20 01:14:01;;;;;;;;;2.00;2.00;;;;;-147.17;100.00;59696.56;4997607;28;51189;-73
2022/02/20 01:16:26;;;;;;;;;6.67;5.00;;;;;-147.17;100.00;59696.56;4998856;28;51898;-72
2022/02/20 01:18:52;;;;;;;;;4.33;4.33;;;;;-147.17;100.00;59696.56;4993742;28;51190;-74
2022/02/20 01:21:17;;;;;;;;;2.00;1.33;;;;;-147.17;100.00;59696.56;4997171;28;51043;-75
2022/02/20 01:23:42;;;;;;;;;2.00;2.00;;;;;-147.17;100.00;59696.56;4997233;28;50989;-72
2022/02/20 01:26:08;;;;;;;;;2.00;2.00;;;;;-147.17;100.00;59696.56;5005472;28;52062;-73
2022/02/20 01:28:33;;;;;;;;;1.67;1.00;;;;;-147.17;100.00;59696.56;5001761;28;51080;-71
2022/02/20 01:30:58;;;;;;;;;2.33;1.67;;;;;-147.17;100.00;59696.56;4998920;28;51083;-72
2022/02/20 01:33:24;;;;;;;;;2.00;1.67;;;;;-147.17;100.00;59696.56;5005056;28;51066;-71
2022/02/20 01:35:49;;;;;;;;;2.00;2.00;;;;;-147.17;100.00;59696.56;5000967;28;51058;-72
2022/02/20 01:38:15;;;;;;;;;4.00;1.67;;;;;-147.17;100.00;59696.56;4985050;28;51057;-73
2022/02/20 01:40:45;;;;;;;;;4.00;3.00;;;;;-147.17;100.00;59696.56;4983405;28;51146;-75
2022/02/20 01:43:12;;;;;;;;;7.33;5.33;;;;;-147.17;100.00;59696.56;5002098;28;50971;-75
2022/02/20 01:45:39;;;;;;;;;2.00;2.00;;;;;-147.17;100.00;59696.56;5003608;28;51908;-73
2022/02/20 01:48:05;;;;;;;;;1.00;1.00;;;;;-147.17;100.00;59696.56;5001491;28;50905;-73
2022/02/20 01:50:31;;;;;;;;;1.00;1.00;;;;;-147.17;100.00;59696.56;4999921;28;51287;-73
2022/02/20 01:52:57;;;;;;;;;2.00;1.00;;;;;-147.17;100.00;59696.56;5001667;28;51132;-74
2022/02/20 01:55:22;;;;;;;;;3.00;2.00;;;;;-147.17;100.00;59696.56;5005807;28;51298;-72
2022/02/20 01:57:48;;;;;;;;;2.00;2.00;;;;;-147.17;100.00;59696.56;4996020;28;51110;-74
2022/02/20 02:00:16;;;;;;;;;2.00;1.67;;;;;-147.17;100.00;59696.56;4991763;28;51320;-73
2022/02/20 02:02:42;;;;;;;;;2.00;1.67;;;;;-147.17;100.00;59696.56;5008398;28;51316;-73
2022/02/20 02:05:08;;;;;;;;;2.67;2.00;;;;;-147.17;100.00;59696.56;5004887;28;51790;-74
2022/02/20 02:07:34;;;;;;;;;1.00;1.00;;;;;-147.17;100.00;59696.56;5006208;28;51434;-72
2022/02/20 02:10:00;;;;;;;;;2.67;2.33;;;;;-147.17;100.00;59696.56;5005165;28;51122;-73
2022/02/20 02:12:25;;;;;;;;;1.67;1.67;;;;;-147.17;100.00;59696.56;5007286;28;51129;-72
2022/02/20 02:14:53;;;;;;;;;3.00;3.00;;;;;-147.17;100.00;59696.56;5001939;28;51246;-72
2022/02/20 02:17:18;;;;;;;;;2.33;1.00;;;;;-147.17;100.00;59696.56;5008299;28;50956;-72
2022/02/20 02:19:43;;;;;;;;;1.00;1.00;;;;;-147.17;100.00;59696.56;5016009;28;51037;-72
2022/02/20 02:22:09;;;;;;;;;2.00;1.00;;;;;-147.17;100.00;59696.56;5009887;28;50946;-72
2022/02/20 02:24:34;;;;;;;;;2.67;2.00;;;;;-147.17;100.00;59696.56;5001525;28;52211;-72
2022/02/20 02:27:01;;;;;;;;;6.67;5.00;;;;;-147.17;100.00;59696.56;4998387;28;51077;-71
2022/02/20 02:29:27;;;;;;;;;4.00;4.00;;;;;-147.17;100.00;59696.56;5000350;28;51293;-73
2022/02/20 02:31:52;;;;;;;;;2.00;2.00;;;;;-147.17;100.00;59696.56;4996674;28;51083;-75
2022/02/20 02:34:20;;;;;;;;;4.00;4.00;;;;;-147.17;100.00;59696.56;4980551;28;51492;-74
2022/02/20 02:36:52;;;;;;;;;6.33;4.67;;;;;-147.17;100.00;59696.56;4997747;28;51144;-73
2022/02/20 02:39:17;;;;;;;;;5.33;4.33;;;;;-147.17;100.00;59696.56;4998500;28;51047;-76
2022/02/20 02:41:44;;;;;;;;;2.00;2.00;;;;;-147.17;100.00;59696.56;4988283;28;51306;-73
2022/02/20 02:44:09;;;;;;;;;4.00;3.67;;;;;-147.17;100.00;59696.56;4996971;28;51744;-73
2022/02/20 02:46:34;;;;;;;;;2.00;2.00;;;;;-147.17;100.00;59696.56;5008353;28;51024;-72
2022/02/20 02:49:01;;;;;;;;;3.00;3.00;;;;;-147.17;100.00;59696.56;5000637;28;51127;-75
2022/02/20 02:51:27;;;;;;;;;1.00;0.00;;;;;-147.17;100.00;59696.56;5010417;28;50966;-76
2022/02/20 02:53:54;;;;;;;;;0.67;0.67;;;;;-147.17;100.00;59696.56;4995112;28;51059;-73
2022/02/20 02:56:20;;;;;;;;;2.33;2.00;;;;;-147.17;100.00;59696.56;5002491;28;51129;-73
2022/02/20 02:58:46;;;;;;;;;3.00;2.67;;;;;-147.17;100.00;59696.56;5007985;28;51257;-75
2022/02/20 03:01:12;;;;;;;;;2.00;1.00;;;;;-147.17;100.00;59696.56;5000790;28;51265;-73
2022/02/20 03:03:37;;;;;;;;;1.33;1.00;;;;;-147.17;100.00;59696.56;5005316;28;52092;-72
2022/02/20 03:06:10;;;;;;;;;2.00;1.00;;;;;-147.17;100.00;59696.56;5000526;28;51022;-73
2022/02/20 03:08:35;;;;;;;;;4.00;2.33;;;;;-147.17;100.00;59696.56;5007616;28;51086;-74
2022/02/20 03:11:01;;;;;;;;;2.00;2.00;;;;;-147.17;100.00;59696.56;5003415;28;51067;-71
2022/02/20 03:13:26;;;;;;;;;1.33;1.00;;;;;-147.17;100.00;59696.56;4984993;28;51945;-71
2022/02/20 03:15:52;;;;;;;;;3.00;2.00;;;;;-147.17;100.00;59696.56;4997266;28;50989;-74
2022/02/20 03:18:17;;;;;;;;;3.33;2.00;;;;;-147.17;100.00;59696.56;5012655;28;51025;-72
2022/02/20 03:20:43;;;;;;;;;2.33;1.33;;;;;-147.17;100.00;59696.56;5006520;28;51541;-75
2022/02/20 03:23:08;;;;;;;;;2.67;2.00;;;;;-147.17;100.00;59696.56;5001118;28;52297;-73
2022/02/20 03:25:34;;;;;;;;;3.00;2.00;;;;;-147.17;100.00;59696.56;4993308;28;51081;-74
2022/02/20 03:27:59;;;;;;;;;1.67;0.00;;;;;-147.17;100.00;59696.56;5001493;28;51240;-75
2022/02/20 03:30:25;;;;;;;;;2.00;1.00;;;;;-147.17;100.00;59696.56;5002833;28;51154;-73
2022/02/20 03:32:50;;;;;;;;;2.33;2.00;;;;;-147.17;100.00;59696.56;5006844;28;53283;-74
2022/02/20 03:35:15;;;;;;;;;1.00;1.00;;;;;-147.17;100.00;59696.56;4994629;28;51016;-73
2022/02/20 03:37:41;;;;;;;;;1.00;1.00;;;;;-147.17;100.00;59696.56;5005489;28;51034;-74
2022/02/20 03:40:07;;;;;;;;;1.00;1.00;;;;;-147.17;100.00;59696.56;4994157;28;51106;-73
2022/02/20 03:42:32;;;;;;;;;3.00;3.00;;;;;-147.17;100.00;59696.56;4999816;28;51109;-71
2022/02/20 03:44:57;;;;;;;;;2.00;1.00;;;;;-147.17;100.00;59696.56;4994417;28;51195;-71
2022/02/20 03:47:23;;;;;;;;;2.33;1.00;;;;;-147.17;100.00;59696.56;4997912;28;51169;-72
2022/02/20 03:49:49;;;;;;;;;1.00;1.00;;;;;-147.17;100.00;59696.56;4997489;28;51253;-73
2022/02/20 03:52:14;;;;;;;;;1.00;1.00;;;;;-147.17;100.00;59696.56;5000213;28;51047;-72
2022/02/20 03:54:39;;;;;;;;;2.67;2.00;;;;;-147.17;100.00;59696.56;5005961;28;50992;-71
2022/02/20 03:57:05;;;;;;;;;1.33;1.00;;;;;-147.17;100.00;59696.56;4993818;28;51982;-76
2022/02/20 03:59:30;;;;;;;;;4.00;2.25;;;;;-147.17;100.00;59696.56;5001163;28;50951;-76
2022/02/20 04:01:55;;;;;;;;;4.67;2.33;;;;;-147.17;100.00;59696.56;5008516;28;52302;-77
2022/02/20 04:04:21;;;;;;;;;4.00;4.00;;;;;-147.17;100.00;59696.56;5006362;28;51205;-77
2022/02/20 04:06:46;;;;;;;;;3.00;2.00;;;;;-147.17;100.00;59696.56;5003411;28;51154;-77
2022/02/20 04:09:12;;;;;;;;;1.67;1.00;;;;;-147.17;100.00;59696.56;5005036;28;51049;-77
2022/02/20 04:11:38;;;;;;;;;2.33;2.00;;;;;-147.17;100.00;59696.56;5010207;28;51745;-76
2022/02/20 04:14:03;;;;;;;;;2.00;1.00;;;;;-147.17;100.00;59696.56;5003907;28;51074;-75
2022/02/20 04:16:28;;;;;;;;;4.25;3.00;;;;;-147.17;100.00;59696.56;4985874;28;51204;-76
2022/02/20 04:18:54;;;;;;;;;3.00;2.00;;;;;-147.17;100.00;59696.56;5014159;28;51194;-75
2022/02/20 04:21:19;;;;;;;;;3.00;2.33;;;;;-147.17;100.00;59696.56;4997446;28;51796;-76
2022/02/20 04:23:44;;;;;;;;;2.00;2.00;;;;;-147.17;100.00;59696.56;4997595;28;51196;-75
2022/02/20 04:26:10;;;;;;;;;3.00;2.00;;;;;-147.17;100.00;59696.56;5008106;28;51189;-76
2022/02/20 04:28:35;;;;;;;;;3.33;2.00;;;;;-147.17;100.00;59696.56;4998167;28;51273;-78
2022/02/20 04:31:01;;;;;;;;;2.00;2.00;;;;;-147.17;100.00;59696.56;5010098;28;51755;-77
2022/02/20 04:33:26;;;;;;;;;4.33;2.33;;;;;-147.17;100.00;59696.56;5003472;28;51133;-76
2022/02/20 04:35:52;;;;;;;;;2.00;2.00;;;;;-147.17;100.00;59696.56;4997688;28;51031;-76
2022/02/20 04:38:17;;;;;;;;;4.33;3.00;;;;;-147.17;100.00;59696.56;5013060;28;51054;-75
2022/02/20 04:40:43;;;;;;;;;3.00;1.67;;;;;-147.17;100.00;59696.56;5005659;28;51237;-75
2022/02/20 04:43:08;;;;;;;;;2.00;1.00;;;;;-147.17;100.00;59696.56;5003152;28;51218;-75
2022/02/20 04:45:33;;;;;;;;;4.00;2.00;;;;;-147.17;100.00;59696.56;5006140;28;51878;-78
2022/02/20 04:47:59;;;;;;;;;2.00;1.33;;;;;-147.17;100.00;59696.56;5001094;28;51332;-78
2022/02/20 04:50:24;;;;;;;;;1.00;1.00;;;;;-147.17;100.00;59696.56;5000854;28;52736;-77
2022/02/20 04:52:49;;;;;;;;;3.00;2.00;;;;;-147.17;100.00;59696.56;5000616;28;51157;-75
2022/02/20 04:55:15;;;;;;;;;3.67;2.33;;;;;-147.17;100.00;59696.56;5000668;28;51659;-75
2022/02/20 04:57:41;;;;;;;;;2.00;2.00;;;;;-147.17;100.00;59696.56;4999228;28;51091;-75
2022/02/20 05:00:09;;;;;;;;;3.00;3.00;;;;;-147.17;100.00;59696.56;4998757;28;52806;-77
2022/02/20 05:02:35;;;;;;;;;4.00;2.00;;;;;-147.17;100.00;59696.56;4998050;28;51051;-75
2022/02/20 05:05:00;;;;;;;;;2.00;2.00;;;;;-147.17;100.00;59696.56;5004903;28;51278;-79
2022/02/20 05:07:25;;;;;;;;;3.25;3.00;;;;;-147.17;100.00;59696.56;4990502;28;51256;-79
2022/02/20 05:09:51;;;;;;;;;4.33;3.67;;;;;-147.17;100.00;59696.56;4991805;28;54249;-76
2022/02/20 05:12:16;;;;;;;;;5.67;1.33;;;;;-147.17;100.00;59696.56;4996488;28;51173;-78
2022/02/20 05:14:41;;;;;;;;;3.00;2.00;;;;;-147.17;100.00;59696.56;5006154;28;51647;-74
2022/02/20 05:17:09;;;;;;;;;1.33;1.33;;;;;-147.17;100.00;59696.56;5003155;28;51227;-76
2022/02/20 05:19:34;;;;;;;;;3.00;1.00;;;;;-147.17;100.00;59696.56;4993607;28;51911;-77
2022/02/20 05:21:59;;;;;;;;;1.33;1.33;;;;;-147.17;100.00;59696.56;4996654;28;51008;-75
2022/02/20 05:24:25;;;;;;;;;3.33;2.00;;;;;-147.17;100.00;59696.56;5010143;28;51121;-78
2022/02/20 05:26:50;;;;;;;;;3.33;2.00;;;;;-147.17;100.00;59696.56;5003384;28;51381;-76
2022/02/20 05:29:15;;;;;;;;;2.00;1.33;;;;;-147.17;100.00;59696.56;5011709;28;51785;-77
2022/02/20 05:31:41;;;;;;;;;3.00;2.00;;;;;-147.17;100.00;59696.56;5012261;28;50980;-77
2022/02/20 05:34:06;;;;;;;;;3.00;2.00;;;;;-147.17;100.00;59696.56;5001005;28;51302;-77
2022/02/20 05:36:31;;;;;;;;;3.00;2.00;;;;;-147.17;100.00;59696.56;5002367;28;51333;-76
2022/02/20 05:38:57;;;;;;;;;2.00;1.67;;;;;-147.17;100.00;59696.56;5007588;28;51420;-76
2022/02/20 05:41:23;;;;;;;;;3.67;2.33;;;;;-147.17;100.00;59696.56;5006849;28;50999;-77
2022/02/20 05:43:48;;;;;;;;;3.00;2.00;;;;;-147.17;100.00;59696.56;5008777;28;51329;-78
2022/02/20 05:46:14;;;;;;;;;2.00;2.00;;;;;-147.17;100.00;59696.56;5010394;28;51401;-77
2022/02/20 05:48:39;;;;;;;;;2.67;2.00;;;;;-147.17;100.00;59696.56;5009291;28;51110;-78
2022/02/20 05:51:05;;;;;;;;;5.00;3.33;;;;;-147.17;100.00;59696.56;5001023;28;51044;-76
2022/02/20 05:53:30;;;;;;;;;2.00;1.00;;;;;-147.17;100.00;59696.56;4984552;28;51246;-76
2022/02/20 05:55:56;;;;;;;;;3.33;1.33;;;;;-147.17;100.00;59696.56;5006533;28;51383;-75
2022/02/20 05:58:21;;;;;;;;;3.00;2.33;;;;;-147.17;100.00;59696.56;5002197;28;52621;-76
2022/02/20 06:00:47;;;;;;;;;3.67;3.67;;;;;-147.17;100.00;59696.56;5007176;28;51111;-75
2022/02/20 06:03:12;;;;;;;;;1.00;1.00;;;;;-147.17;100.00;59696.56;5001914;28;51002;-77
2022/02/20 06:05:38;;;;;;;;;2.67;2.00;;;;;-147.17;100.00;59696.56;5007225;28;51330;-76
2022/02/20 06:08:04;;;;;;;;;5.50;3.00;;;;;-147.17;100.00;59696.56;5002359;28;52304;-75
2022/02/20 06:10:29;;;;;;;;;1.33;1.00;;;;;-147.17;100.00;59696.56;4998658;28;51188;-76
2022/02/20 06:12:54;;;;;;;;;2.00;2.00;;;;;-147.17;100.00;59696.56;4986589;28;50963;-76
2022/02/20 06:15:20;;;;;;;;;2.00;1.00;;;;;-147.17;100.00;59696.56;5009267;28;51061;-76
2022/02/20 06:17:45;;;;;;;;;1.00;1.00;;;;;-147.17;100.00;59696.56;4994734;28;51709;-76
2022/02/20 06:20:11;;;;;;;;;1.67;1.67;;;;;-147.17;100.00;59696.56;5005958;28;51097;-76
2022/02/20 06:22:36;;;;;;;;;5.00;3.00;;;;;-147.17;100.00;59696.56;5012192;28;51246;-75
2022/02/20 06:25:03;;;;;;;;;3.33;2.00;;;;;-147.17;100.00;59696.56;5006625;28;51295;-77
2022/02/20 06:27:29;;;;;;;;;2.33;2.00;;;;;-147.17;100.00;59696.56;5002676;28;51106;-77
2022/02/20 06:29:54;;;;;;;;;3.00;2.75;;;;;-147.17;100.00;59696.56;5000928;28;51236;-77
2022/02/20 06:32:20;;;;;;;;;3.00;1.33;;;;;-147.17;100.00;59696.56;5005335;28;51194;-76
2022/02/20 06:34:45;;;;;;;;;2.00;2.00;;;;;-147.17;100.00;59696.56;5008630;28;51147;-76
2022/02/20 06:37:11;;;;;;;;;3.00;2.00;;;;;-147.17;100.00;59696.56;5010504;28;51640;-77
2022/02/20 06:39:37;;;;;;;;;2.00;1.00;;;;;-147.17;100.00;59696.56;4994382;28;51219;-75
2022/02/20 06:42:03;;;;;;;;;1.00;1.00;;;;;-147.17;100.00;59696.56;4978694;28;51152;-77
2022/02/20 06:44:29;;;;;;;;;3.00;1.33;;;;;-147.17;100.00;59696.56;5011668;28;51042;-78
2022/02/20 06:46:55;;;;;;;;;2.67;2.00;;;;;-147.17;100.00;59696.56;5002624;28;50964;-76
2022/02/20 06:49:20;;;;;;;;;2.33;1.00;;;;;-147.17;100.00;59696.56;5009626;28;51142;-77
2022/02/20 06:51:45;;;;;;;;;2.00;2.00;;;;;-147.17;100.00;59696.56;5012123;28;50974;-77
2022/02/20 06:54:11;;;;;;;;;0.00;0.00;;;;;-147.17;100.00;59696.56;5012736;28;52107;-76
2022/02/20 06:56:36;;;;;;;;;3.00;2.00;;;;;-147.17;100.00;59696.56;5002643;28;52581;-78
2022/02/20 06:59:02;;;;;;;;;4.00;4.00;;;;;-147.17;100.00;59696.56;4993182;28;51008;-77
2022/02/20 07:01:27;;;;;;;;;4.00;2.00;;;;;-147.17;100.00;59696.56;5001713;28;51111;-77
2022/02/20 07:03:52;;;;;;;;;1.67;1.33;;;;;-147.17;100.00;59696.56;5014954;28;51076;-77
2022/02/20 07:06:18;;;;;;;;;1.33;1.00;;;;;-147.17;100.00;59696.56;5009457;28;51724;-77
2022/02/20 07:08:43;;;;;;;;;2.00;1.00;;;;;-147.17;100.00;59696.56;5005361;28;51071;-78
2022/02/20 07:11:09;;;;;;;;;4.67;2.00;;;;;-147.17;100.00;59696.56;4977908;28;51186;-77
2022/02/20 07:13:34;;;;;;;;;1.67;1.00;;;;;-147.17;100.00;59696.56;5008413;28;51170;-76
2022/02/20 07:15:59;;;;;;;;;4.00;2.00;;;;;-147.17;100.00;59696.56;5012512;28;51718;-77
2022/02/20 07:18:25;;;;;;;;;3.33;1.33;;;;;-147.17;100.00;59696.56;5002246;28;51063;-76
2022/02/20 07:20:50;;;;;;;;;1.67;1.67;;;;;-147.17;100.00;59696.56;5005786;28;51275;-76
2022/02/20 07:23:16;;;;;;;;;3.00;2.00;;;;;-147.17;100.00;59696.56;5006180;28;51238;-77
2022/02/20 07:25:42;;;;;;;;;2.33;2.00;;;;;-147.17;100.00;59696.56;5006724;28;51097;-77
2022/02/20 07:28:07;;;;;;;;;4.67;1.33;;;;;-147.17;100.00;59696.56;5009715;28;50973;-76
2022/02/20 07:30:33;;;;;;;;;2.00;1.67;;;;;-147.17;100.00;59696.56;4995563;28;51135;-77
2022/02/20 07:33:07;;;;;;;;;2.00;1.00;;;;;-147.17;100.00;59696.56;4997578;28;51305;-74
2022/02/20 07:35:34;;;;;;;;;2.33;2.00;;;;;-147.17;100.00;59696.56;5007439;28;51876;-76
2022/02/20 07:38:00;;;;;;;;;3.00;2.00;;;;;-147.17;100.00;59696.56;5007360;28;51342;-78
2022/02/20 07:40:27;;;;;;;;;2.00;1.00;;;;;-147.17;100.00;59696.56;4995081;28;51058;-76
2022/02/20 07:42:53;;;;;;;;;2.67;1.67;;;;;-147.17;100.00;59696.56;4999020;28;50993;-76
2022/02/20 07:45:23;;;;;;;;;3.33;2.00;;;;;-147.17;100.00;59696.56;5007370;28;51358;-78
2022/02/20 07:47:59;;;;;;;;;2.00;2.00;;;;;-147.17;100.00;59696.56;5011906;28;50977;-78
2022/02/20 07:50:30;;;;;;;;;1.67;1.00;;;;;-147.17;100.00;59696.56;5008337;28;51130;-77
2022/02/20 07:52:57;;;;;;;;;4.00;2.00;;;;;-147.17;100.00;59696.56;5004331;28;51303;-77
2022/02/20 07:55:23;;;;;;;;;2.00;1.33;;;;;-147.17;100.00;59696.56;4996245;28;51172;-78
2022/02/20 07:57:49;;;;;;;;;2.00;1.00;;;;;-147.17;100.00;59696.56;4999310;28;50979;-77
2022/02/20 08:00:17;;;;;;;;;2.00;1.33;;;;;-147.17;100.00;59696.56;4999806;28;50987;-77
2022/02/20 08:02:43;;;;;;;;;4.67;3.00;;;;;-147.17;100.00;59696.56;5011396;28;51302;-77
2022/02/20 08:05:09;;;;;;;;;3.00;2.33;;;;;-147.17;100.00;59696.56;4999067;28;52648;-77
2022/02/20 08:07:35;;;;;;;;;2.00;2.00;;;;;-147.17;100.00;59696.56;5001202;28;51157;-77
2022/02/20 08:10:01;;;;;;;;;2.00;1.67;;;;;-147.17;100.00;59696.56;5003988;28;51382;-77
2022/02/20 08:12:26;;;;;;;;;3.00;1.33;;;;;-147.17;100.00;59696.56;5012041;28;51077;-77
2022/02/20 08:14:52;;;;;;;;;1.67;1.00;;;;;-147.17;100.00;59696.56;4985641;28;53834;-80
2022/02/20 08:17:17;;;;;;;;;3.33;2.00;;;;;-147.17;100.00;59696.56;5004752;28;51129;-78
2022/02/20 08:19:42;;;;;;;;;3.00;1.67;;;;;-147.17;100.00;59696.56;4998084;28;51453;-74
2022/02/20 08:22:08;;;;;;;;;3.33;2.00;;;;;-147.17;100.00;59696.56;4998175;28;51273;-73
2022/02/20 08:24:33;;;;;;;;;3.67;1.67;;;;;-147.17;100.00;59696.56;4998545;28;51099;-72
2022/02/20 08:26:59;;;;;;;;;2.00;2.00;;;;;-147.17;100.00;59696.56;4991848;28;51157;-73
2022/02/20 08:29:24;;;;;;;;;1.00;1.00;;;;;-147.17;100.00;59696.56;4997604;28;51042;-74
2022/02/20 08:31:50;;;;;;;;;3.00;2.33;;;;;-147.17;100.00;59696.56;4997657;28;51102;-73
2022/02/20 08:34:15;;;;;;;;;2.67;2.00;;;;;-147.17;100.00;59696.56;4996202;28;51041;-73
2022/02/20 08:36:41;;;;;;;;;3.67;3.00;;;;;-147.17;100.00;59696.56;5001443;28;51345;-73
2022/02/20 08:39:07;;;;;;;;;3.33;3.00;;;;;-147.17;100.00;59696.56;5011544;28;51324;-73
2022/02/20 08:41:35;;;;;;;;;3.33;3.00;;;;;-147.17;100.00;59696.56;5001989;28;51113;-73
2022/02/20 08:44:00;;;;;;;;;4.00;3.33;;;;;-147.17;100.00;59696.56;4994954;28;52206;-75
2022/02/20 08:46:26;;;;;;;;;3.00;2.00;;;;;-147.17;100.00;59696.56;4978757;28;51257;-74
2022/02/20 08:48:51;;;;;;;;;6.00;3.00;;;;;-147.17;100.00;59696.56;4995035;28;51102;-74
2022/02/20 08:51:17;;;;;;;;;3.67;2.00;;;;;-147.17;100.00;59696.56;4997741;28;51224;-75
2022/02/20 08:53:43;;;;;;;;;2.00;2.00;;;;;-147.17;100.00;59696.56;4993114;28;52675;-79
2022/02/20 08:56:09;;;;;;;;;4.00;3.67;;;;;-147.17;100.00;59696.56;4985893;28;51279;-77
2022/02/20 08:58:35;;;;;;;;;2.00;2.00;;;;;-147.17;100.00;59696.56;5010812;28;50970;-77
2022/02/20 09:01:02;;;;;;;;;2.67;2.67;;;;;-147.17;100.00;59696.56;5003063;28;51390;-79
2022/02/20 09:03:28;;;;;;;;;3.00;2.00;;;;;-147.17;100.00;59696.56;5003989;28;51750;-77
2022/02/20 09:05:53;;;;;;;;;1.67;1.67;;;;;-147.17;100.00;59696.56;5008998;28;51141;-78
2022/02/20 09:08:19;;;;;;;;;3.67;1.67;;;;;-147.17;100.00;59696.56;5001839;28;51781;-76
2022/02/20 09:10:45;;;;;;;;;4.00;3.00;;;;;-147.17;100.00;59696.56;4994720;28;51151;-69
2022/02/20 09:13:11;;;;;;;;;4.33;3.00;;;;;-147.17;100.00;59696.56;4998932;28;52200;-68
2022/02/20 09:15:36;;;;;;;;;3.33;2.00;;;;;-147.17;100.00;59696.56;5003659;28;51210;-70
2022/02/20 09:18:05;;;;;;;;;3.00;2.00;;;;;-147.17;100.00;59696.56;4995767;28;51271;-69
2022/02/20 09:20:31;;;;;;;;;2.67;2.00;;;;;-147.17;100.00;59696.56;4961105;28;1234114;-68
2022/02/20 09:22:56;;;;;;;;;2.00;1.67;;;;;-147.17;100.00;59696.56;4985812;28;52038;-66
2022/02/20 09:25:22;;;;;;;;;3.33;2.00;;;;;-147.17;100.00;59696.56;5011316;28;50960;-66
2022/02/20 09:27:47;;;;;;;;;2.00;2.00;;;;;-147.17;100.00;59696.56;4983146;28;51127;-68
2022/02/20 09:30:13;;;;;;;;;4.00;2.00;;;;;-147.17;100.00;59696.56;4998091;28;51028;-68
2022/02/20 09:32:38;;;;;;;;;3.67;3.33;;;;;-147.17;100.00;59696.56;4993301;28;51103;-70
2022/02/20 09:35:04;;;;;;;;;3.00;3.00;;;;;-147.17;100.00;59696.56;5001431;28;51119;-67
2022/02/20 09:37:29;;;;;;;;;3.67;3.67;;;;;-147.17;100.00;59696.56;4998842;28;51052;-66
2022/02/20 09:39:55;;;;;;;;;4.00;3.67;;;;;-147.17;100.00;59696.56;4998419;28;51173;-66
2022/02/20 09:42:20;;;;;;;;;2.33;2.00;;;;;-147.17;100.00;59696.56;4995404;28;51242;-65
2022/02/20 09:44:46;;;;;;;;;5.00;3.33;;;;;-147.17;100.00;59696.56;4994222;28;51219;-68
2022/02/20 09:47:13;;;;;;;;;2.00;2.00;;;;;-147.17;100.00;59696.56;5000374;28;51286;-67
2022/02/20 09:49:38;;;;;;;;;3.67;2.67;;;;;-147.17;100.00;59696.56;4997770;28;51165;-68
2022/02/20 09:52:04;;;;;;;;;3.67;2.33;;;;;-147.17;100.00;59696.56;4997076;28;51771;-67
2022/02/20 09:54:30;;;;;;;;;2.33;2.00;;;;;-147.17;100.00;59696.56;4998217;28;51070;-67
2022/02/20 09:56:56;;;;;;;;;3.00;2.00;;;;;-147.17;100.00;59696.56;4994146;28;51232;-66
2022/02/20 09:59:22;;;;;;;;;4.00;3.00;;;;;-147.17;100.00;59696.56;5001453;28;51154;-69
2022/02/20 10:02:07;;;;;;;;;2.00;1.67;;;;;-147.17;100.00;59696.56;5006157;28;52813;-69
2022/02/20 10:04:40;;;;;;;;;3.00;3.00;;;;;-147.17;100.00;59696.56;4981080;28;51173;-71
2022/02/20 10:07:06;;;;;;;;;2.33;2.00;;;;;-147.17;100.00;59696.56;4999473;28;51048;-70
2022/02/20 10:09:40;;;;;;;;;2.33;2.00;;;;;-147.17;100.00;59696.56;5006949;28;51023;-69
2022/02/20 10:12:26;;;;;;;;;4.33;2.67;;;;;-147.17;100.00;59696.56;4995027;28;52294;-70
2022/02/20 10:14:52;;;;;;;;;4.00;2.67;;;;;-147.17;100.00;59696.56;5007300;28;51276;-69
2022/02/20 10:17:19;;;;;;;;;3.00;3.00;;;;;-147.17;100.00;59696.56;4998165;28;51093;-69
2022/02/20 10:20:07;;;;;;;;;2.67;2.67;;;;;-147.17;100.00;59696.56;4996825;28;51203;-67
2022/02/20 10:22:38;;;;;;;;;2.00;2.00;;;;;-147.17;100.00;59696.56;4983736;28;51737;-67
2022/02/20 10:25:07;;;;;;;;;3.33;3.33;;;;;-147.17;100.00;59696.56;4999724;28;51134;-66
2022/02/20 10:27:33;;;;;;;;;5.00;4.00;;;;;-147.17;100.00;59696.56;4999600;28;51083;-67
2022/02/20 10:30:20;;;;;;;;;2.00;2.00;;;;;-147.17;100.00;59696.56;4996525;28;51122;-67
2022/02/20 10:33:01;;;;;;;;;3.00;1.67;;;;;-147.17;100.00;59696.56;4998031;28;51666;-66
2022/02/20 10:35:30;;;;;;;;;5.33;4.33;;;;;-147.17;100.00;59696.56;4995532;28;51120;-67
2022/02/20 10:37:56;;;;;;;;;2.00;1.33;;;;;-147.17;100.00;59696.56;5001360;28;51117;-67
2022/02/20 10:40:33;;;;;;;;;2.00;2.00;;;;;-147.17;100.00;59696.56;5000544;28;51492;-67
2022/02/20 10:43:01;;;;;;;;;2.67;1.00;;;;;-147.17;100.00;59696.56;5002951;28;51920;-67
2022/02/20 10:45:34;;;;;;;;;2.33;2.00;;;;;-147.17;100.00;59696.56;5001925;28;51697;-68
2022/02/20 10:48:13;;;;;;;;;5.33;5.00;;;;;-147.17;100.00;59696.56;4997014;28;50982;-67
2022/02/20 10:50:39;;;;;;;;;2.00;1.67;;;;;-147.17;100.00;59696.56;5005389;28;50881;-67
2022/02/20 10:53:06;;;;;;;;;2.00;2.00;;;;;-147.17;100.00;59696.56;5003014;28;51891;-67
2022/02/20 10:55:51;;;;;;;;;3.00;3.00;;;;;-147.17;100.00;59696.56;5010254;28;51139;-67
2022/02/20 10:58:19;;;;;;;;;2.00;1.67;;;;;-147.17;100.00;59696.56;4994937;28;51225;-68
2022/02/20 11:00:48;;;;;;;;;1.67;1.00;;;;;-147.17;100.00;59696.56;5001177;28;51299;-67
2022/02/20 11:03:15;;;;;;;;;2.67;2.00;;;;;-147.17;100.00;59696.56;4998005;28;52016;-68
2022/02/20 11:05:41;;;;;;;;;3.00;2.00;;;;;-147.17;100.00;59696.56;4998109;28;51031;-67